createdAt,value
2018-01-28T00:02:26.901Z,83.90
2018-01-28T00:04:53.494Z,83.80
2018-01-28T00:07:19.761Z,83.70
2018-01-28T00:09:46.719Z,84.30
2018-01-28T00:12:13.649Z,84.40
2018-01-28T00:14:40.650Z,84.50
2018-01-28T00:17:06.924Z,84.00
2018-01-28T00:19:35.705Z,84.30
2018-01-28T00:22:01.953Z,83.70
2018-01-28T00:24:28.830Z,84.40
2018-01-28T00:26:55.045Z,83.80
2018-01-28T00:29:21.658Z,83.70
2018-01-28T00:31:48.578Z,84.10
2018-01-28T00:34:14.830Z,83.50
2018-01-28T00:36:41.795Z,84.10
2018-01-28T00:39:08.758Z,84.10
2018-01-28T00:41:34.963Z,83.40
2018-01-28T00:44:01.971Z,84.50
2018-01-28T00:46:28.171Z,84.50
2018-01-28T00:48:54.386Z,83.70
2018-01-28T00:51:20.726Z,83.80
2018-01-28T00:53:46.966Z,83.80
2018-01-28T00:56:13.978Z,84.20
2018-01-28T00:58:40.876Z,84.80
2018-01-28T01:01:07.068Z,84.20
2018-01-28T01:03:41.763Z,84.00
2018-01-28T01:06:45.625Z,85.30
2018-01-28T01:09:11.809Z,84.30
2018-01-28T01:11:39.748Z,84.60
2018-01-28T01:14:06.035Z,84.70
2018-01-28T01:16:32.751Z,84.70
2018-01-28T01:19:00.903Z,84.90
2018-01-28T01:21:27.207Z,84.30
2018-01-28T01:23:57.103Z,84.40
2018-01-28T01:26:23.315Z,84.00
2018-01-28T01:28:50.703Z,84.20
2018-01-28T01:31:16.882Z,84.50
2018-01-28T01:36:16.935Z,84.60
2018-01-28T01:38:43.172Z,85.00
2018-01-28T01:41:09.565Z,84.40
2018-01-28T01:43:35.776Z,84.80
2018-01-28T01:46:01.930Z,85.00
2018-01-28T01:48:29.412Z,85.00
2018-01-28T01:50:55.594Z,84.90
2018-01-28T01:53:23.254Z,84.60
2018-01-28T01:55:50.226Z,84.00
2018-01-28T01:58:17.192Z,84.10
2018-01-28T02:00:44.125Z,84.50
2018-01-28T02:03:11.024Z,84.20
2018-01-28T02:05:37.194Z,84.00
2018-01-28T02:08:04.403Z,84.30
2018-01-28T02:10:31.498Z,84.10
2018-01-28T02:12:59.694Z,84.70
2018-01-28T02:15:25.869Z,84.60
2018-01-28T02:17:52.057Z,83.70
2018-01-28T02:20:18.307Z,82.00
2018-01-28T02:22:44.511Z,82.90
2018-01-28T02:25:10.749Z,82.80
2018-01-28T02:40:41.971Z,80.80
2018-01-28T02:43:08.203Z,81.30
2018-01-28T02:45:34.354Z,80.80
2018-01-28T02:48:00.528Z,79.50
2018-01-28T02:50:26.712Z,79.90
2018-01-28T02:52:55.190Z,78.90
2018-01-28T02:55:21.458Z,78.40
2018-01-28T02:57:47.665Z,78.30
2018-01-28T03:00:14.744Z,78.80
2018-01-28T03:02:42.109Z,78.30
2018-01-28T03:05:09.011Z,79.30
2018-01-28T03:17:25.201Z,80.20
2018-01-28T03:19:51.746Z,80.70
2018-01-28T03:22:17.964Z,80.70
2018-01-28T03:24:45.537Z,80.40
2018-01-28T03:27:13.192Z,81.00
2018-01-28T03:29:39.439Z,81.30
2018-01-28T03:32:07.449Z,82.00
2018-01-28T03:44:25.523Z,82.10
2018-01-28T03:46:53.983Z,82.60
2018-01-28T03:49:20.254Z,82.50
2018-01-28T03:51:46.537Z,81.70
2018-01-28T03:54:12.783Z,81.90
2018-01-28T03:56:41.448Z,82.80
2018-01-28T03:59:09.644Z,83.10
2018-01-28T04:01:36.593Z,83.40
2018-01-28T04:04:03.688Z,83.20
2018-01-28T04:06:29.849Z,82.90
2018-01-28T04:08:56.062Z,82.90
2018-01-28T04:11:23.725Z,83.30
2018-01-28T04:13:50.318Z,83.40
2018-01-28T04:16:16.754Z,83.70
2018-01-28T04:18:43.913Z,84.00
2018-01-28T04:21:10.871Z,83.70
2018-01-28T04:23:37.054Z,84.10
2018-01-28T04:26:03.998Z,84.60
2018-01-28T04:28:31.349Z,84.00
2018-01-28T04:30:57.580Z,84.20
2018-01-28T04:33:24.419Z,84.50
2018-01-28T04:35:50.578Z,85.10
2018-01-28T04:38:16.818Z,85.10
2018-01-28T04:40:43.013Z,85.90
2018-01-28T04:43:11.821Z,86.40
2018-01-28T04:45:39.103Z,86.40
2018-01-28T04:48:07.447Z,86.50
2018-01-28T04:50:36.108Z,86.50
2018-01-28T04:53:02.738Z,86.70
2018-01-28T04:55:29.008Z,87.00
2018-01-28T04:57:55.225Z,87.70
2018-01-28T05:00:22.190Z,87.90
2018-01-28T05:02:49.720Z,87.80
2018-01-28T05:05:15.907Z,88.40
2018-01-28T05:07:45.042Z,88.20
2018-01-28T05:10:11.450Z,88.50
2018-01-28T05:12:39.016Z,88.50
2018-01-28T05:15:05.210Z,89.10
2018-01-28T05:17:32.261Z,88.50
2018-01-28T05:19:58.457Z,89.00
2018-01-28T05:22:26.930Z,89.10
2018-01-28T05:24:53.807Z,88.80
2018-01-28T05:27:20.163Z,88.80
2018-01-28T05:29:46.355Z,88.10
2018-01-28T05:32:14.994Z,88.40
2018-01-28T05:34:41.198Z,88.10
2018-01-28T05:37:08.422Z,88.60
2018-01-28T05:39:35.246Z,88.00
2018-01-28T05:42:01.425Z,87.90
2018-01-28T05:44:27.591Z,87.90
2018-01-28T05:56:38.773Z,88.20
2018-01-28T05:59:05.981Z,88.00
2018-01-28T06:01:33.600Z,87.80
2018-01-28T06:03:59.993Z,88.30
2018-01-28T06:16:17.028Z,87.10
2018-01-28T06:18:44.766Z,86.90
2018-01-28T06:21:11.108Z,87.00
2018-01-28T06:23:37.277Z,87.30
2018-01-28T06:26:04.283Z,86.60
2018-01-28T06:28:31.186Z,86.60
2018-01-28T06:30:57.449Z,86.20
2018-01-28T06:33:23.653Z,86.20
2018-01-28T06:35:51.080Z,86.80
2018-01-28T06:38:17.232Z,86.30
2018-01-28T06:40:43.430Z,86.80
2018-01-28T06:43:09.592Z,86.90
2018-01-28T06:45:36.470Z,87.30
2018-01-28T06:48:02.656Z,87.30
2018-01-28T06:50:28.877Z,87.10
2018-01-28T06:52:56.498Z,87.10
2018-01-28T06:55:22.722Z,87.10
2018-01-28T06:57:48.922Z,86.90
2018-01-28T07:00:15.875Z,86.90
2018-01-28T07:02:42.777Z,86.80
2018-01-28T07:05:08.991Z,86.80
2018-01-28T07:07:35.907Z,86.40
2018-01-28T07:10:02.099Z,86.30
2018-01-28T07:12:29.056Z,86.80
2018-01-28T07:14:57.512Z,87.40
2018-01-28T07:17:24.884Z,87.70
2018-01-28T07:19:51.815Z,87.60
2018-01-28T07:22:23.615Z,87.60
2018-01-28T07:24:50.289Z,87.70
2018-01-28T07:27:16.451Z,88.60
2018-01-28T07:29:44.077Z,88.80
2018-01-28T07:32:10.599Z,89.00
2018-01-28T07:34:36.790Z,89.50
2018-01-28T07:37:04.197Z,90.20
2018-01-28T07:39:30.404Z,90.20
2018-01-28T07:41:56.827Z,89.90
2018-01-28T07:44:23.035Z,90.20
2018-01-28T07:46:49.977Z,89.60
2018-01-28T07:49:16.893Z,89.30
2018-01-28T07:51:43.101Z,88.70
2018-01-28T07:54:09.329Z,89.20
2018-01-28T07:56:36.063Z,88.20
2018-01-28T07:59:02.277Z,87.90
2018-01-28T08:01:28.461Z,88.70
2018-01-28T08:03:54.670Z,88.10
2018-01-28T08:06:20.943Z,87.10
2018-01-28T08:08:48.581Z,87.00
2018-01-28T08:11:16.358Z,87.10
2018-01-28T08:13:43.431Z,86.50
2018-01-28T08:16:09.621Z,86.50
2018-01-28T08:18:35.806Z,87.10
2018-01-28T08:21:02.933Z,87.10
2018-01-28T08:23:29.767Z,87.20
2018-01-28T08:25:56.780Z,86.90
2018-01-28T08:28:38.658Z,86.80
2018-01-28T08:31:04.898Z,86.40
2018-01-28T08:33:31.146Z,86.60
2018-01-28T08:35:57.438Z,86.50
2018-01-28T08:38:27.203Z,86.30
2018-01-28T08:40:53.437Z,86.90
2018-01-28T08:43:21.391Z,87.10
2018-01-28T08:45:47.605Z,86.50
2018-01-28T08:48:15.408Z,86.30
2018-01-28T08:50:42.333Z,87.30
2018-01-28T08:53:08.576Z,87.20
2018-01-28T08:55:35.996Z,86.70
2018-01-28T08:58:02.561Z,85.60
2018-01-28T09:00:29.670Z,85.80
2018-01-28T09:03:00.051Z,85.80
2018-01-28T09:05:27.579Z,86.20
2018-01-28T09:07:54.591Z,86.10
2018-01-28T09:10:24.457Z,86.30
2018-01-28T09:12:53.586Z,85.70
2018-01-28T09:15:19.996Z,85.70
2018-01-28T09:17:47.925Z,85.90
2018-01-28T09:20:14.972Z,85.50
2018-01-28T09:22:41.206Z,85.40
2018-01-28T09:25:08.015Z,85.30
2018-01-28T09:27:34.217Z,85.50
2018-01-28T09:30:01.771Z,85.90
2018-01-28T09:32:28.035Z,85.30
2018-01-28T09:34:54.757Z,85.00
2018-01-28T09:37:21.858Z,86.20
2018-01-28T09:39:48.349Z,85.60
2018-01-28T09:42:14.583Z,85.90
2018-01-28T09:44:40.979Z,85.40
2018-01-28T09:47:08.613Z,86.20
2018-01-28T09:49:35.794Z,85.80
2018-01-28T09:52:06.294Z,85.80
2018-01-28T09:54:32.749Z,85.90
2018-01-28T09:56:58.975Z,85.90
2018-01-28T09:59:27.094Z,85.70
2018-01-28T10:01:53.321Z,85.60
2018-01-28T10:04:19.473Z,85.30
2018-01-28T10:06:45.889Z,85.40
2018-01-28T10:09:12.289Z,85.40
2018-01-28T10:11:39.412Z,85.50
2018-01-28T10:14:05.752Z,85.40
2018-01-28T10:16:31.951Z,85.50
2018-01-28T10:18:58.201Z,85.10
2018-01-28T10:21:25.302Z,85.30
2018-01-28T10:23:52.209Z,85.60
2018-01-28T10:26:18.669Z,85.60
2018-01-28T10:38:30.223Z,85.30
2018-01-28T10:40:57.193Z,85.40
2018-01-28T10:43:23.443Z,84.50
2018-01-28T10:45:49.634Z,84.40
2018-01-28T10:48:16.580Z,84.90
2018-01-28T10:50:43.569Z,84.50
2018-01-28T10:53:09.742Z,83.70
2018-01-28T10:55:35.927Z,84.10
2018-01-28T10:58:02.140Z,84.10
2018-01-28T11:00:30.071Z,84.00
2018-01-28T11:02:57.089Z,84.00
2018-01-28T11:05:23.306Z,83.90
2018-01-28T11:07:49.531Z,83.70
2018-01-28T11:10:16.638Z,83.70
2018-01-28T11:12:43.631Z,84.20
2018-01-28T11:15:09.829Z,83.50
2018-01-28T11:17:36.018Z,83.10
2018-01-28T11:20:03.170Z,83.60
2018-01-28T11:22:29.398Z,83.40
2018-01-28T11:24:55.941Z,83.20
2018-01-28T11:27:22.175Z,83.00
2018-01-28T11:29:49.170Z,83.80
2018-01-28T11:32:15.371Z,83.90
2018-01-28T11:34:41.607Z,83.10
2018-01-28T11:37:08.721Z,83.10
2018-01-28T11:39:34.971Z,83.00
2018-01-28T11:42:02.103Z,82.70
2018-01-28T11:44:28.366Z,82.50
2018-01-28T11:46:54.774Z,82.70
2018-01-28T11:49:21.030Z,82.80
2018-01-28T11:51:47.269Z,83.00
2018-01-28T11:54:13.579Z,82.30
2018-01-28T11:56:40.586Z,82.80
2018-01-28T11:59:07.127Z,82.30
2018-01-28T12:01:34.080Z,82.70
2018-01-28T12:04:00.435Z,81.50
2018-01-28T12:06:27.470Z,82.30
2018-01-28T12:08:54.513Z,82.30
2018-01-28T12:11:20.849Z,82.10
2018-01-28T12:13:47.817Z,82.60
2018-01-28T12:16:14.071Z,82.60
2018-01-28T12:18:40.279Z,82.00
2018-01-28T12:21:06.445Z,82.60
2018-01-28T12:23:32.659Z,82.00
2018-01-28T12:25:58.874Z,82.40
2018-01-28T12:28:25.108Z,80.90
2018-01-28T12:30:53.771Z,81.50
2018-01-28T12:33:21.257Z,81.10
2018-01-28T12:35:47.432Z,80.50
2018-01-28T12:38:13.614Z,79.90
2018-01-28T12:40:39.839Z,80.50
2018-01-28T12:43:06.179Z,79.60
2018-01-28T12:45:32.309Z,79.40
2018-01-28T12:47:58.608Z,79.00
2018-01-28T12:50:25.576Z,78.50
2018-01-28T12:52:51.881Z,77.80
2018-01-28T12:55:18.379Z,77.20
2018-01-28T12:57:45.010Z,77.60
2018-01-28T13:00:11.432Z,77.40
2018-01-28T13:02:38.603Z,77.70
2018-01-28T13:05:04.824Z,78.00
2018-01-28T13:07:31.067Z,77.60
2018-01-28T13:09:57.371Z,77.90
2018-01-28T13:12:23.557Z,77.90
2018-01-28T13:14:50.643Z,77.20
2018-01-28T13:17:16.915Z,76.30
2018-01-28T13:19:44.839Z,76.30
2018-01-28T13:22:11.107Z,76.20
2018-01-28T13:24:37.336Z,75.10
2018-01-28T13:27:03.584Z,74.80
2018-01-28T13:29:30.750Z,75.10
2018-01-28T13:31:58.475Z,73.70
2018-01-28T13:34:25.325Z,73.60
2018-01-28T13:36:52.829Z,74.00
2018-01-28T13:39:20.033Z,75.30
2018-01-28T13:41:46.211Z,75.30
2018-01-28T13:44:12.412Z,75.80
2018-01-28T13:46:39.399Z,77.80
2018-01-28T13:49:05.622Z,77.80
2018-01-28T13:51:32.119Z,78.60
2018-01-28T13:53:58.923Z,79.20
2018-01-28T13:56:25.158Z,79.70
2018-01-28T13:58:51.433Z,79.90
2018-01-28T14:01:17.642Z,80.30
2018-01-28T14:03:45.535Z,80.10
2018-01-28T14:06:11.806Z,79.40
2018-01-28T14:08:38.838Z,80.00
2018-01-28T14:11:05.036Z,80.20
2018-01-28T14:13:31.247Z,80.50
2018-01-28T14:15:58.209Z,81.00
2018-01-28T14:18:25.201Z,80.70
2018-01-28T14:20:51.418Z,80.20
2018-01-28T14:23:17.610Z,80.00
2018-01-28T14:25:58.719Z,80.30
2018-01-28T14:28:25.463Z,80.90
2018-01-28T14:30:51.738Z,80.80
2018-01-28T14:33:17.941Z,80.90
2018-01-28T14:35:44.122Z,81.40
2018-01-28T14:38:10.332Z,81.50
2018-01-28T14:40:37.322Z,81.60
2018-01-28T14:43:03.707Z,81.60
2018-01-28T14:45:29.960Z,80.60
2018-01-28T14:47:56.202Z,81.50
2018-01-28T14:50:22.470Z,81.50
2018-01-28T14:52:48.719Z,81.30
2018-01-28T14:55:20.301Z,81.50
2018-01-28T14:57:48.102Z,80.80
2018-01-28T15:00:15.170Z,80.80
2018-01-28T15:02:42.194Z,80.80
2018-01-28T15:05:08.431Z,81.90
2018-01-28T15:07:34.759Z,81.40
2018-01-28T15:10:00.970Z,81.40
2018-01-28T15:12:27.123Z,81.40
2018-01-28T15:14:53.482Z,82.00
2018-01-28T15:17:20.377Z,81.90
2018-01-28T15:19:46.562Z,81.90
2018-01-28T15:22:13.532Z,81.90
2018-01-28T15:24:40.499Z,81.90
2018-01-28T15:27:07.560Z,81.90
2018-01-28T15:29:33.800Z,81.80
2018-01-28T15:32:01.041Z,81.80
2018-01-28T15:34:27.290Z,82.30
2018-01-28T15:36:53.472Z,82.30
2018-01-28T15:39:19.766Z,82.80
2018-01-28T15:41:45.975Z,82.70
2018-01-28T15:44:13.064Z,82.80
2018-01-28T15:46:40.082Z,83.50
2018-01-28T15:49:06.319Z,83.50
2018-01-28T15:51:32.569Z,83.20
2018-01-28T15:53:59.608Z,84.30
2018-01-28T15:56:26.535Z,85.10
2018-01-28T15:58:52.833Z,84.30
2018-01-28T16:01:19.127Z,84.20
2018-01-28T16:03:46.118Z,85.00
2018-01-28T16:06:12.304Z,84.60
2018-01-28T16:08:39.211Z,85.10
2018-01-28T16:20:50.504Z,85.40
2018-01-28T16:23:19.441Z,85.90
2018-01-28T16:25:45.630Z,85.50
2018-01-28T16:28:14.451Z,86.10
2018-01-28T16:30:40.725Z,85.50
2018-01-28T16:33:07.267Z,85.50
2018-01-28T16:35:34.304Z,86.10
2018-01-28T16:38:00.881Z,85.60
2018-01-28T16:40:27.094Z,85.80
2018-01-28T16:42:54.087Z,86.30
2018-01-28T16:45:20.358Z,85.70
2018-01-28T16:47:47.360Z,86.30
2018-01-28T16:50:13.656Z,85.60
2018-01-28T16:52:39.866Z,85.60
2018-01-28T16:55:06.839Z,86.00
2018-01-28T17:07:18.119Z,85.60
2018-01-28T17:09:44.375Z,86.10
2018-01-28T17:12:10.624Z,85.70
2018-01-28T17:14:37.033Z,85.80
2018-01-28T17:17:03.508Z,85.70
2018-01-28T17:19:29.812Z,86.00
2018-01-28T17:21:56.184Z,85.70
2018-01-28T17:24:23.191Z,85.50
2018-01-28T17:26:50.363Z,85.30
2018-01-28T17:29:16.597Z,85.50
2018-01-28T17:31:44.506Z,86.00
2018-01-28T17:34:10.712Z,85.10
2018-01-28T17:36:37.036Z,85.30
2018-01-28T17:39:03.375Z,85.80
2018-01-28T17:41:29.616Z,83.60
2018-01-28T17:43:56.082Z,85.50
2018-01-28T17:46:22.299Z,86.00
2018-01-28T17:48:49.057Z,85.80
2018-01-28T17:51:16.831Z,86.00
2018-01-28T17:53:43.104Z,85.50
2018-01-28T17:56:10.139Z,85.50
2018-01-28T17:58:36.354Z,85.10
2018-01-28T18:01:02.749Z,85.60
2018-01-28T18:03:29.876Z,85.30
2018-01-28T18:05:57.164Z,85.10
2018-01-28T18:08:23.399Z,85.00
2018-01-28T18:10:49.700Z,85.90
2018-01-28T18:13:15.929Z,84.90
2018-01-28T18:15:42.431Z,85.00
2018-01-28T18:18:09.322Z,84.90
2018-01-28T18:20:35.670Z,84.90
2018-01-28T18:23:02.701Z,85.40
2018-01-28T18:25:28.851Z,84.90
2018-01-28T18:37:45.133Z,85.10
2018-01-28T18:40:12.088Z,85.60
2018-01-28T18:42:38.312Z,84.90
2018-01-28T18:45:05.928Z,84.80
2018-01-28T18:47:32.499Z,84.80
2018-01-28T18:50:00.362Z,85.30
2018-01-28T18:52:27.402Z,85.50
2018-01-28T18:54:54.083Z,85.30
2018-01-28T18:57:20.349Z,85.40
2018-01-28T18:59:46.640Z,84.80
2018-01-28T19:02:13.351Z,85.40
2018-01-28T19:04:40.376Z,85.10
2018-01-28T19:07:06.590Z,84.80
2018-01-28T19:09:32.918Z,84.70
2018-01-28T19:12:00.165Z,84.60
2018-01-28T19:14:27.065Z,84.80
2018-01-28T19:16:54.058Z,85.40
2018-01-28T19:19:20.409Z,84.80
2018-01-28T19:21:47.916Z,84.90
2018-01-28T19:24:15.154Z,85.00
2018-01-28T19:26:42.123Z,85.70
2018-01-28T19:29:09.071Z,85.00
2018-01-28T19:31:35.264Z,85.00
2018-01-28T19:34:02.214Z,85.40
2018-01-28T19:36:29.308Z,85.70
2018-01-28T19:38:55.513Z,85.10
2018-01-28T19:41:22.776Z,85.20
2018-01-28T19:43:49.299Z,85.40
2018-01-28T19:46:15.809Z,85.20
2018-01-28T19:48:42.099Z,85.40
2018-01-28T19:51:08.308Z,85.50
2018-01-28T19:53:34.909Z,85.50
2018-01-28T20:05:51.609Z,85.60
2018-01-28T20:08:17.911Z,85.70
2018-01-28T20:10:44.177Z,85.70
2018-01-28T20:13:10.685Z,85.70
2018-01-28T20:15:37.716Z,86.30
2018-01-28T20:18:03.959Z,86.20
2018-01-28T20:20:30.215Z,85.60
2018-01-28T20:22:57.502Z,85.50
2018-01-28T20:25:23.716Z,85.50
2018-01-28T20:27:50.378Z,85.60
2018-01-28T20:30:16.637Z,85.70
2018-01-28T20:32:42.886Z,85.50
2018-01-28T20:35:10.137Z,86.30
2018-01-28T20:37:37.120Z,86.50
2018-01-28T20:40:03.360Z,86.00
2018-01-28T20:42:30.422Z,86.10
2018-01-28T20:44:56.678Z,86.60
2018-01-28T20:47:23.690Z,86.70
2018-01-28T20:49:49.922Z,86.60
2018-01-28T20:52:16.149Z,86.60
2018-01-28T20:54:42.636Z,86.10
2018-01-28T20:57:09.592Z,86.50
2018-01-28T20:59:35.881Z,86.00
2018-01-28T21:11:52.142Z,86.70
2018-01-28T21:14:19.554Z,86.80
2018-01-28T21:16:46.638Z,86.70
2018-01-28T21:19:13.802Z,86.90
2018-01-28T21:21:40.061Z,87.40
2018-01-28T21:24:08.156Z,87.50
2018-01-28T21:26:35.223Z,87.40
2018-01-28T21:29:01.385Z,87.50
2018-01-28T21:31:27.633Z,87.20
2018-01-28T21:33:54.551Z,87.90
2018-01-28T21:36:20.732Z,87.20
2018-01-28T21:48:37.852Z,87.80
2018-01-28T21:51:04.090Z,88.60
2018-01-28T21:53:30.310Z,88.00
2018-01-28T21:55:56.512Z,88.50
2018-01-28T21:58:22.700Z,88.80
2018-01-28T22:00:49.690Z,89.10
2018-01-28T22:03:16.014Z,89.10
2018-01-28T22:05:42.332Z,88.50
2018-01-28T22:08:08.560Z,88.50
2018-01-28T22:10:34.825Z,88.50
2018-01-28T22:13:01.371Z,88.50
2018-01-28T22:15:27.674Z,88.60
2018-01-28T22:17:53.986Z,88.50
2018-01-28T22:20:20.966Z,89.00
2018-01-28T22:22:47.143Z,88.50
2018-01-28T22:25:13.724Z,88.50
2018-01-28T22:37:29.927Z,88.50
2018-01-28T22:39:56.106Z,89.10
2018-01-28T22:42:22.354Z,89.00
2018-01-28T22:44:48.557Z,88.30
2018-01-28T22:47:14.830Z,88.80
2018-01-28T22:49:41.017Z,88.00
2018-01-28T22:52:07.206Z,87.90
2018-01-28T22:54:33.782Z,87.80
2018-01-28T22:56:59.997Z,87.90
2018-01-28T22:59:26.212Z,87.80
2018-01-28T23:01:53.180Z,88.50
2018-01-28T23:04:19.364Z,87.80
2018-01-28T23:06:45.677Z,87.80
2018-01-28T23:09:11.915Z,87.90
2018-01-28T23:11:38.487Z,88.10
2018-01-28T23:14:05.421Z,88.60
2018-01-28T23:16:31.608Z,88.10
2018-01-28T23:18:57.853Z,88.20
2018-01-28T23:21:24.070Z,88.30
2018-01-28T23:23:50.294Z,88.70
2018-01-28T23:26:16.483Z,88.50
2018-01-28T23:28:43.387Z,88.50
2018-01-28T23:31:09.591Z,89.20
2018-01-28T23:33:36.707Z,88.00
2018-01-28T23:36:03.738Z,88.80
2018-01-28T23:38:30.597Z,88.80
2018-01-28T23:40:57.499Z,88.70
2018-01-28T23:43:23.722Z,88.30
2018-01-28T23:45:49.916Z,88.50
2018-01-28T23:48:16.509Z,88.50
2018-01-28T23:50:42.740Z,89.10
2018-01-28T23:53:08.959Z,88.50
2018-01-28T23:55:35.122Z,88.50
2018-01-28T23:58:02.033Z,89.10
